Time;durP1;ratioP1;P1;durP2;ratioP2;P2;SDS_P1;SDS_P2;PMS_P1;PMS_P2;Temp;Humidity;BMP_temperature;BMP_pressure;BME280_temperature;BME280_humidity;BME280_pressure;Samples;Min_cycle;Max_cycle;Signal;HPM_P1;HPM_P2
2021/10/23 00:02:17;;;;;;;1.38;0.77;;;;;;;25.90;31.22;97381.16;5065162;28;20047;-32
2021/10/23 00:04:43;;;;;;;0.85;0.45;;;;;;;25.89;31.15;97379.47;5084306;28;20036;-32
2021/10/23 00:07:09;;;;;;;1.35;0.75;;;;;;;25.89;31.30;97371.59;5071117;28;20027;-35
2021/10/23 00:09:34;;;;;;;1.45;0.70;;;;;;;25.89;31.18;97385.53;5062646;28;20035;-29
2021/10/23 00:12:00;;;;;;;1.35;0.80;;;;;;;25.89;31.28;97374.22;5060937;28;20615;-29
2021/10/23 00:14:26;;;;;;;2.42;0.80;;;;;;;25.89;31.13;97377.66;5062267;28;20020;-30
2021/10/23 00:16:51;;;;;;;1.38;0.70;;;;;;;25.90;31.25;97381.16;5065101;28;20021;-30
2021/10/23 00:19:17;;;;;;;1.33;0.63;;;;;;;25.87;31.29;97370.78;5066813;28;20047;-33
2021/10/23 00:21:42;;;;;;;3.05;0.57;;;;;;;25.90;31.08;97378.53;5066754;28;20028;-34
2021/10/23 00:24:07;;;;;;;1.27;0.70;;;;;;;25.89;31.31;97376.84;5072135;28;20024;-29
2021/10/23 00:26:33;;;;;;;1.20;0.60;;;;;;;25.90;31.26;97379.38;5067730;28;20028;-31
2021/10/23 00:28:58;;;;;;;1.90;0.73;;;;;;;25.90;31.17;97384.63;5065984;28;20499;-27
2021/10/23 00:31:24;;;;;;;1.13;0.55;;;;;;;25.89;31.18;97376.84;5068098;28;20037;-32
2021/10/23 00:33:49;;;;;;;1.58;0.60;;;;;;;25.89;31.30;97389.97;5066940;28;20025;-31
2021/10/23 00:36:14;;;;;;;2.08;0.65;;;;;;;25.89;31.38;97384.72;5068856;28;20491;-29
2021/10/23 00:38:40;;;;;;;1.38;0.60;;;;;;;25.90;31.16;97389.03;5074380;28;20032;-29
2021/10/23 00:41:05;;;;;;;0.55;0.47;;;;;;;25.89;31.22;97384.72;5058869;28;20023;-33
2021/10/23 00:43:31;;;;;;;0.80;0.50;;;;;;;25.89;31.23;97389.97;5062076;28;20036;-32
2021/10/23 00:45:56;;;;;;;0.85;0.60;;;;;;;25.89;31.34;97384.72;5067309;28;20027;-32
2021/10/23 00:48:22;;;;;;;1.15;0.60;;;;;;;25.90;31.18;97396.91;5060371;28;20410;-31
2021/10/23 00:50:47;;;;;;;1.73;0.60;;;;;;;25.87;31.26;97390.03;5060469;28;20089;-33
2021/10/23 00:53:14;;;;;;;0.88;0.50;;;;;;;25.89;31.16;97400.47;5054080;28;20033;-30
2021/10/23 00:55:40;;;;;;;0.82;0.50;;;;;;;25.88;31.29;97396.13;5048309;28;20024;-34
2021/10/23 00:58:05;;;;;;;1.90;0.80;;;;;;;25.88;31.35;97399.59;5051897;28;20500;-28
2021/10/23 01:00:31;;;;;;;1.52;0.63;;;;;;;25.88;31.54;97393.50;5053230;28;20059;-29
2021/10/23 01:02:56;;;;;;;1.27;0.77;;;;;;;25.88;31.27;97393.50;5050159;28;20035;-27
2021/10/23 01:05:21;;;;;;;1.00;0.55;;;;;;;25.87;31.42;97387.41;5053318;28;20066;-28
2021/10/23 01:07:47;;;;;;;1.25;0.45;;;;;;;25.87;31.36;97397.03;5055322;28;20033;-34
2021/10/23 01:10:12;;;;;;;1.75;0.82;;;;;;;25.88;31.31;97394.34;5058100;28;20031;-33
2021/10/23 01:12:41;;;;;;;0.73;0.50;;;;;;;25.88;31.21;97393.50;5051543;28;20021;-31
2021/10/23 01:15:21;;;;;;;0.98;0.60;;;;;;;25.89;31.26;97395.22;5061063;28;20024;-29
2021/10/23 01:17:47;;;;;;;0.82;0.45;;;;;;;25.88;31.37;97393.50;5058656;28;20085;-32
2021/10/23 01:20:12;;;;;;;1.45;0.60;;;;;;;25.89;31.35;97397.84;5062282;28;20083;-32
2021/10/23 01:22:38;;;;;;;1.30;0.63;;;;;;;25.88;31.39;97393.50;5066008;28;20046;-32
2021/10/23 01:25:03;;;;;;;1.85;0.60;;;;;;;25.88;31.30;97398.75;5069445;28;20028;-34
2021/10/23 01:27:29;;;;;;;2.30;0.73;;;;;;;25.88;31.50;97398.75;5062885;28;20027;-33
2021/10/23 01:29:54;;;;;;;0.98;0.60;;;;;;;25.86;31.48;97390.97;5065420;28;21268;-33
2021/10/23 01:32:20;;;;;;;0.90;0.57;;;;;;;25.87;31.25;97403.16;5073131;28;20122;-31
2021/10/23 01:34:45;;;;;;;0.73;0.38;;;;;;;25.87;31.39;97402.28;5066844;28;20074;-34
2021/10/23 01:37:10;;;;;;;4.15;0.68;;;;;;;25.87;31.44;97402.28;5058597;28;20717;-31
2021/10/23 01:39:36;;;;;;;2.75;0.60;;;;;;;25.87;31.58;97403.16;5064396;28;20032;-28
2021/10/23 01:42:02;;;;;;;1.85;0.63;;;;;;;25.87;31.29;97407.53;5062357;28;20027;-30
2021/10/23 01:44:33;;;;;;;3.47;0.70;;;;;;;25.86;31.44;97404.09;5062814;28;20956;-34
2021/10/23 01:46:59;;;;;;;8.63;1.60;;;;;;;25.86;31.30;97411.09;5060757;28;20025;-28
2021/10/23 01:49:24;;;;;;;4.30;1.80;;;;;;;25.85;30.64;97412.03;5051685;28;20036;-32
2021/10/23 01:51:50;;;;;;;5.97;1.88;;;;;;;25.82;30.21;97411.22;5063614;28;20043;-30
2021/10/23 01:54:15;;;;;;;6.35;1.90;;;;;;;25.79;29.80;97406.13;5058742;28;20016;-29
2021/10/23 01:56:41;;;;;;;5.28;1.70;;;;;;;25.77;29.47;97412.34;5061537;28;20055;-28
2021/10/23 01:59:06;;;;;;;5.57;1.98;;;;;;;25.74;29.41;97413.31;5067520;28;20406;-31
2021/10/23 02:01:32;;;;;;;5.75;2.30;;;;;;;25.71;29.22;97413.47;5068781;28;20138;-30
2021/10/23 02:03:57;;;;;;;5.50;2.28;;;;;;;25.68;28.94;97418.84;5060253;28;20032;-35
2021/10/23 02:06:23;;;;;;;28.52;2.88;;;;;;;25.65;29.46;97418.97;5058813;28;20028;-30
2021/10/23 02:08:48;;;;;;;15.70;2.17;;;;;;;25.62;29.24;97416.50;5059246;28;20032;-35
2021/10/23 02:11:14;;;;;;;9.48;2.97;;;;;;;25.61;29.24;97422.63;5080895;28;20031;-33
2021/10/23 02:13:39;;;;;;;8.15;2.17;;;;;;;25.59;29.13;97414.00;5066824;28;20059;-29
2021/10/23 02:16:05;;;;;;;11.20;2.30;;;;;;;25.57;28.89;97422.78;5067332;28;20024;-31
2021/10/23 02:18:30;;;;;;;7.22;2.47;;;;;;;25.55;29.02;97418.50;5069582;28;20040;-32
2021/10/23 02:20:56;;;;;;;11.45;2.50;;;;;;;25.53;29.07;97415.94;5069208;28;20057;-33
2021/10/23 02:23:22;;;;;;;5.95;2.53;;;;;;;25.52;28.97;97423.88;5083965;28;20497;-35
2021/10/23 02:25:47;;;;;;;7.60;2.40;;;;;;;25.49;28.98;97418.72;5064838;28;20063;-31
2021/10/23 02:28:13;;;;;;;12.38;2.40;;;;;;;25.46;28.84;97424.97;5060341;28;20035;-30
2021/10/23 02:30:38;;;;;;;13.30;2.70;;;;;;;25.44;28.82;97421.56;5057856;28;20541;-32
2021/10/23 02:33:03;;;;;;;8.05;3.13;;;;;;;25.42;28.94;97418.13;5056854;28;20032;-27
2021/10/23 02:35:29;;;;;;;12.00;3.58;;;;;;;25.41;29.74;97412.06;5074584;28;20086;-28
2021/10/23 02:37:54;;;;;;;11.85;3.38;;;;;;;25.42;30.26;97415.50;5056695;28;20028;-28
2021/10/23 02:40:20;;;;;;;25.52;3.92;;;;;;;25.43;30.36;97422.47;5058639;28;20054;-34
2021/10/23 02:42:45;;;;;;;17.38;3.67;;;;;;;25.45;30.74;97418.03;5055058;28;20024;-31
2021/10/23 02:45:11;;;;;;;8.70;3.55;;;;;;;25.45;30.87;97423.25;5060012;28;20067;-34
2021/10/23 02:47:36;;;;;;;13.02;3.35;;;;;;;25.47;30.93;97424.03;5064257;28;20642;-31
2021/10/23 02:50:04;;;;;;;14.52;3.15;;;;;;;25.50;30.98;97425.69;5061784;28;20060;-31
2021/10/23 02:52:29;;;;;;;21.27;4.75;;;;;;;25.51;31.05;97425.63;5066924;28;20023;-32
2021/10/23 02:54:55;;;;;;;22.80;5.28;;;;;;;25.53;31.25;97421.19;5065844;28;20113;-33
2021/10/23 02:57:20;;;;;;;32.15;6.90;;;;;;;25.55;31.42;97435.06;5059937;28;20037;-29
2021/10/23 02:59:46;;;;;;;31.40;6.53;;;;;;;25.56;31.23;97431.56;5059680;28;20028;-28
2021/10/23 03:02:11;;;;;;;29.83;6.50;;;;;;;25.59;31.35;97435.00;5063111;28;20036;-32
2021/10/23 03:04:36;;;;;;;24.90;5.35;;;;;;;25.60;31.50;97427.06;5069503;28;20032;-32
2021/10/23 03:07:02;;;;;;;19.75;4.88;;;;;;;25.59;31.43;97433.19;5076286;28;20024;-29
2021/10/23 03:09:27;;;;;;;19.83;4.70;;;;;;;25.61;31.32;97438.38;5076522;28;20024;-29
2021/10/23 03:11:53;;;;;;;24.35;5.63;;;;;;;25.61;31.44;97433.13;5072650;28;20509;-28
2021/10/23 03:14:18;;;;;;;19.13;5.68;;;;;;;25.62;31.30;97430.44;5067251;28;20026;-30
2021/10/23 03:16:44;;;;;;;17.17;4.82;;;;;;;25.62;31.39;97434.88;5066427;28;20040;-32
2021/10/23 03:19:09;;;;;;;13.07;4.57;;;;;;;25.63;31.38;97436.56;5067917;28;20032;-37
2021/10/23 03:21:34;;;;;;;18.77;4.97;;;;;;;25.64;31.31;97433.88;5069129;28;20027;-31
2021/10/23 03:24:00;;;;;;;20.40;4.82;;;;;;;25.64;31.40;97438.28;5067808;28;20029;-29
2021/10/23 03:26:25;;;;;;;15.70;4.38;;;;;;;25.65;31.51;97439.97;5066096;28;20031;-30
2021/10/23 03:28:51;;;;;;;16.27;4.45;;;;;;;25.65;31.52;97445.22;5066415;28;20410;-31
2021/10/23 03:31:16;;;;;;;13.15;4.63;;;;;;;25.66;31.55;97442.53;5068900;28;20024;-31
2021/10/23 03:33:42;;;;;;;23.25;5.22;;;;;;;25.66;31.46;97446.94;5084630;28;20040;-30
2021/10/23 03:36:07;;;;;;;13.13;4.88;;;;;;;25.68;31.52;97455.59;5065406;28;20081;-30
2021/10/23 03:38:33;;;;;;;16.75;4.35;;;;;;;25.68;31.49;97447.72;5067337;28;20052;-32
2021/10/23 03:40:58;;;;;;;14.75;4.43;;;;;;;25.68;31.52;97445.09;5065294;28;20036;-28
2021/10/23 03:43:23;;;;;;;17.10;4.80;;;;;;;25.67;31.53;97444.22;5082930;28;20020;-34
2021/10/23 03:45:49;;;;;;;11.93;4.15;;;;;;;25.69;31.52;97442.41;5066796;28;20032;-31
2021/10/23 03:48:14;;;;;;;11.02;4.15;;;;;;;25.69;31.56;97446.78;5069290;28;20047;-31
2021/10/23 03:50:40;;;;;;;13.32;4.25;;;;;;;25.69;31.42;97449.41;5072234;28;20031;-32
2021/10/23 03:53:05;;;;;;;11.00;4.13;;;;;;;25.70;31.43;97451.13;5072535;28;20036;-29
2021/10/23 03:55:30;;;;;;;11.32;3.78;;;;;;;25.70;31.52;97445.88;5068713;28;20584;-33
2021/10/23 03:57:56;;;;;;;10.93;4.15;;;;;;;25.70;31.53;97444.09;5080997;28;20179;-30
2021/10/23 04:00:21;;;;;;;11.10;3.60;;;;;;;25.70;31.40;97448.50;5073718;28;20024;-29
2021/10/23 04:02:47;;;;;;;11.70;3.70;;;;;;;25.71;31.52;97442.34;5071667;28;20055;-33
2021/10/23 04:05:13;;;;;;;12.20;3.80;;;;;;;25.72;31.50;97456.31;5071864;28;20484;-31
2021/10/23 04:07:38;;;;;;;16.10;4.00;;;;;;;25.72;31.56;97451.91;5070138;28;20526;-31
2021/10/23 04:10:04;;;;;;;12.73;3.60;;;;;;;25.72;31.66;97451.06;5074023;28;20037;-30
2021/10/23 04:12:31;;;;;;;10.55;4.32;;;;;;;25.71;31.53;97455.47;5072265;28;20131;-32
2021/10/23 04:14:56;;;;;;;10.77;3.78;;;;;;;25.72;31.65;97457.16;5070498;28;20109;-32
2021/10/23 04:17:22;;;;;;;11.73;3.63;;;;;;;25.71;31.61;97455.47;5074165;28;20619;-31
2021/10/23 04:19:47;;;;;;;10.07;3.70;;;;;;;25.72;31.60;97451.91;5086927;28;20534;-29
2021/10/23 04:22:13;;;;;;;13.00;4.00;;;;;;;25.72;31.49;97457.16;5070361;28;20039;-32
2021/10/23 04:24:38;;;;;;;8.93;3.40;;;;;;;25.72;31.67;97451.91;5071081;28;20032;-32
2021/10/23 04:27:03;;;;;;;8.45;3.50;;;;;;;25.71;31.54;97458.09;5069587;28;20097;-31
2021/10/23 04:29:29;;;;;;;9.48;3.35;;;;;;;25.72;31.65;97456.31;5071118;28;20017;-34
2021/10/23 04:31:54;;;;;;;8.38;3.22;;;;;;;25.72;31.51;97457.16;5072633;28;20131;-29
2021/10/23 04:34:20;;;;;;;10.30;3.53;;;;;;;25.73;31.53;97455.41;5069390;28;20028;-31
2021/10/23 04:36:45;;;;;;;13.65;3.50;;;;;;;25.71;31.62;97458.09;5070318;28;20043;-32
2021/10/23 04:39:11;;;;;;;11.75;3.90;;;;;;;25.72;31.68;97457.16;5072195;28;20039;-32
2021/10/23 04:41:36;;;;;;;10.00;3.38;;;;;;;25.72;31.59;97457.16;5069901;28;20048;-30
2021/10/23 04:44:02;;;;;;;10.40;3.45;;;;;;;25.72;31.68;97451.06;5068896;28;20482;-32
2021/10/23 04:46:27;;;;;;;8.95;2.92;;;;;;;25.72;31.60;97457.16;5071207;28;20021;-30
2021/10/23 04:48:53;;;;;;;10.18;3.33;;;;;;;25.72;31.61;97458.94;5069265;28;20051;-32
2021/10/23 04:51:18;;;;;;;9.15;3.10;;;;;;;25.71;31.63;97455.47;5078470;28;20500;-28
2021/10/23 04:53:44;;;;;;;8.43;3.20;;;;;;;25.72;31.62;97457.16;5068969;28;20020;-30
2021/10/23 04:56:09;;;;;;;8.02;3.10;;;;;;;25.72;31.63;97451.91;5070556;28;20104;-31
2021/10/23 04:58:38;;;;;;;7.72;3.00;;;;;;;25.72;31.79;97451.91;5069452;28;20603;-30
2021/10/23 05:01:04;;;;;;;8.43;2.67;;;;;;;25.72;31.60;97459.81;5070736;28;20116;-31
2021/10/23 05:03:29;;;;;;;9.82;3.28;;;;;;;25.71;31.78;97455.47;5078378;28;20017;-33
2021/10/23 05:05:55;;;;;;;7.35;2.85;;;;;;;25.72;31.81;97461.56;5071585;28;20047;-31
2021/10/23 05:08:20;;;;;;;7.80;3.15;;;;;;;25.73;31.83;97463.28;5070583;28;20740;-32
2021/10/23 05:10:46;;;;;;;9.30;3.13;;;;;;;25.72;31.73;97467.69;5071739;28;20077;-31
2021/10/23 05:13:13;;;;;;;6.90;2.70;;;;;;;25.73;31.84;97464.13;5070136;28;20512;-33
2021/10/23 05:15:38;;;;;;;5.78;2.50;;;;;;;25.72;31.80;97467.69;5069031;28;20035;-34
2021/10/23 05:18:04;;;;;;;5.82;2.47;;;;;;;25.73;31.64;97469.38;5068952;28;20028;-31
2021/10/23 05:20:29;;;;;;;6.50;2.55;;;;;;;25.74;31.79;97465.00;5064848;28;20868;-31
2021/10/23 05:22:54;;;;;;;5.80;2.63;;;;;;;25.74;31.74;97471.06;5067257;28;20055;-33
2021/10/23 05:25:20;;;;;;;6.32;2.45;;;;;;;25.73;31.65;97469.38;5069593;28;20696;-33
2021/10/23 05:27:45;;;;;;;5.55;2.50;;;;;;;25.74;31.84;97473.69;5070612;28;20036;-30
2021/10/23 05:30:11;;;;;;;6.88;2.72;;;;;;;25.73;31.68;97474.63;5067043;28;20043;-35
2021/10/23 05:32:37;;;;;;;6.50;2.45;;;;;;;25.74;31.74;97476.31;5068511;28;20025;-32
2021/10/23 05:35:02;;;;;;;7.28;2.30;;;;;;;25.74;31.80;97471.06;5069842;28;20039;-33
2021/10/23 05:37:28;;;;;;;6.78;2.30;;;;;;;25.74;31.88;97471.06;5070934;28;20058;-29
2021/10/23 05:39:53;;;;;;;4.82;2.50;;;;;;;25.73;31.75;97479.88;5067037;28;20032;-29
2021/10/23 05:42:18;;;;;;;5.18;2.25;;;;;;;25.73;31.70;97482.50;5067835;28;20074;-29
2021/10/23 05:44:44;;;;;;;4.28;2.25;;;;;;;25.73;31.69;97482.50;5068463;28;20024;-33
2021/10/23 05:47:10;;;;;;;4.90;2.13;;;;;;;25.73;31.87;97490.38;5065381;28;20020;-33
2021/10/23 05:49:35;;;;;;;4.85;2.17;;;;;;;25.73;31.73;97490.38;5070171;28;20391;-27
2021/10/23 05:52:01;;;;;;;4.45;2.10;;;;;;;25.72;31.80;97493.94;5067549;28;20252;-33
2021/10/23 05:54:27;;;;;;;4.70;2.25;;;;;;;25.74;31.77;97492.06;5068780;28;20028;-33
2021/10/23 05:56:53;;;;;;;4.30;2.40;;;;;;;25.74;31.91;97491.25;5070457;28;20028;-34
2021/10/23 05:59:18;;;;;;;4.57;2.15;;;;;;;25.73;31.78;97495.63;5068539;28;20025;-32
2021/10/23 06:01:45;;;;;;;5.07;2.30;;;;;;;25.73;31.80;97497.41;5066725;28;20483;-31
2021/10/23 06:04:10;;;;;;;5.20;2.40;;;;;;;25.72;31.87;97501.81;5077575;28;20064;-30
2021/10/23 06:06:39;;;;;;;4.93;2.20;;;;;;;25.72;31.84;97509.69;5069020;28;20039;-31
2021/10/23 06:09:05;;;;;;;4.88;2.03;;;;;;;25.72;31.86;97509.69;5075790;28;20515;-30
2021/10/23 06:11:30;;;;;;;4.40;2.00;;;;;;;25.72;31.85;97509.69;5078047;28;20093;-31
2021/10/23 06:13:56;;;;;;;4.40;2.05;;;;;;;25.73;31.85;97523.66;5068691;28;20024;-32
2021/10/23 06:16:22;;;;;;;6.43;2.30;;;;;;;25.73;31.86;97527.13;5068593;28;20043;-27
2021/10/23 06:18:48;;;;;;;6.53;2.20;;;;;;;25.73;31.92;97529.75;5067167;28;20529;-29
2021/10/23 06:21:13;;;;;;;3.50;1.90;;;;;;;25.72;31.76;97535.06;5068576;28;20023;-29
2021/10/23 06:23:39;;;;;;;3.75;1.80;;;;;;;25.72;31.94;97535.94;5068101;28;20024;-33
2021/10/23 06:26:04;;;;;;;6.82;2.25;;;;;;;25.73;31.83;97536.78;5064770;28;20031;-32
2021/10/23 06:28:30;;;;;;;4.38;1.90;;;;;;;25.72;31.83;97546.44;5067605;28;20024;-30
2021/10/23 06:30:55;;;;;;;4.28;2.00;;;;;;;25.73;31.84;97548.13;5065516;28;20656;-32
2021/10/23 06:33:21;;;;;;;3.97;1.80;;;;;;;25.73;31.87;97552.53;5069465;28;20033;-31
2021/10/23 06:35:46;;;;;;;3.60;1.80;;;;;;;25.73;31.83;97552.53;5049479;28;20040;-27
2021/10/23 06:38:12;;;;;;;4.65;1.90;;;;;;;25.72;31.94;97556.94;5065555;28;20041;-32
2021/10/23 06:40:37;;;;;;;3.85;1.80;;;;;;;25.72;31.83;97550.81;5066945;28;20024;-31
2021/10/23 06:43:03;;;;;;;6.80;1.95;;;;;;;25.72;31.78;97549.06;5067671;28;20025;-32
2021/10/23 06:45:28;;;;;;;4.28;1.83;;;;;;;25.71;31.74;97555.22;5064784;28;20024;-29
2021/10/23 06:47:54;;;;;;;3.92;1.83;;;;;;;25.71;31.95;97555.22;5053687;28;20032;-28
2021/10/23 06:50:20;;;;;;;3.53;1.73;;;;;;;25.72;31.88;97556.06;5065780;28;20402;-31
2021/10/23 06:52:45;;;;;;;4.50;2.00;;;;;;;25.71;31.91;97560.47;5066528;28;20032;-31
2021/10/23 06:55:10;;;;;;;4.93;2.00;;;;;;;25.69;31.87;97551.78;5068315;28;20434;-31
2021/10/23 06:57:37;;;;;;;4.75;2.20;;;;;;;25.73;31.90;97563.03;5066021;28;20039;-31
2021/10/23 07:00:04;;;;;;;6.28;1.90;;;;;;;25.71;31.81;97565.72;5065682;28;20032;-32
2021/10/23 07:02:36;;;;;;;5.43;1.80;;;;;;;25.72;31.91;97566.56;5069629;28;20032;-30
2021/10/23 07:05:02;;;;;;;5.90;2.00;;;;;;;25.72;31.90;97577.94;5065242;28;20640;-35
2021/10/23 07:07:27;;;;;;;3.85;1.65;;;;;;;25.72;31.97;97577.94;5069184;28;20033;-33
2021/10/23 07:09:52;;;;;;;3.33;1.70;;;;;;;25.72;31.68;97579.69;5066181;28;20039;-36
2021/10/23 07:12:18;;;;;;;3.15;1.63;;;;;;;25.73;31.75;97576.16;5075842;28;20023;-34
2021/10/23 07:14:43;;;;;;;4.18;1.73;;;;;;;25.73;31.80;97578.78;5068160;28;20055;-33
2021/10/23 07:17:09;;;;;;;3.65;1.60;;;;;;;25.72;31.82;97580.56;5065301;28;20029;-33
2021/10/23 07:19:34;;;;;;;8.18;1.67;;;;;;;25.72;31.88;97572.69;5068301;28;20021;-34
2021/10/23 07:21:59;;;;;;;3.17;1.70;;;;;;;25.71;31.83;97576.22;5067414;28;20024;-30
2021/10/23 07:24:25;;;;;;;4.07;1.90;;;;;;;25.72;31.88;97572.69;5069541;28;20665;-32
2021/10/23 07:26:52;;;;;;;2.63;1.42;;;;;;;25.71;31.96;97576.22;5069667;28;20698;-30
2021/10/23 07:29:18;;;;;;;5.18;1.35;;;;;;;25.69;31.89;97583.28;5069480;28;20040;-32
2021/10/23 07:31:43;;;;;;;5.53;2.33;;;;;;;25.71;31.91;97591.97;5068536;28;20059;-32
2021/10/23 07:34:08;;;;;;;4.15;2.10;;;;;;;25.71;31.82;97591.97;5072367;28;20029;-31
2021/10/23 07:36:34;;;;;;;3.33;1.40;;;;;;;25.70;31.85;97590.25;5070463;28;20023;-30
2021/10/23 07:38:59;;;;;;;4.40;1.60;;;;;;;25.71;31.82;97591.97;5071697;28;20057;-26
2021/10/23 07:41:25;;;;;;;4.10;1.55;;;;;;;25.72;31.97;97592.81;5072108;28;20074;-32
2021/10/23 07:43:50;;;;;;;4.18;1.58;;;;;;;25.70;31.91;97601.63;5072384;28;20040;-33
2021/10/23 07:46:16;;;;;;;2.53;1.45;;;;;;;25.72;31.83;97605.94;5071175;28;20033;-28
2021/10/23 07:48:42;;;;;;;2.55;1.40;;;;;;;25.71;32.00;97612.97;5072038;28;20089;-29
2021/10/23 07:51:08;;;;;;;4.82;1.60;;;;;;;25.72;32.00;97621.69;5073347;28;20033;-30
2021/10/23 07:53:34;;;;;;;2.15;1.45;;;;;;;25.72;32.09;97619.94;5073386;28;20050;-32
2021/10/23 07:55:59;;;;;;;3.72;1.55;;;;;;;25.72;32.13;97617.31;5069076;28;20024;-31
2021/10/23 07:58:25;;;;;;;4.03;1.42;;;;;;;25.73;32.22;97621.63;5071445;28;20032;-33
2021/10/23 08:00:51;;;;;;;3.38;1.52;;;;;;;25.73;32.00;97626.88;5071600;28;20204;-32
2021/10/23 08:03:16;;;;;;;2.95;1.30;;;;;;;25.75;32.08;97625.06;5073253;28;20031;-32
2021/10/23 08:05:41;;;;;;;4.15;1.83;;;;;;;25.75;31.99;97625.06;5087733;28;20028;-30
2021/10/23 08:08:07;;;;;;;5.38;1.48;;;;;;;25.76;31.95;97626.78;5070343;28;20058;-32
2021/10/23 08:10:33;;;;;;;2.38;1.30;;;;;;;25.76;32.05;97631.16;5073294;28;20032;-33
2021/10/23 08:12:59;;;;;;;3.58;1.42;;;;;;;25.76;32.13;97631.16;5067614;28;20039;-28
2021/10/23 08:15:25;;;;;;;3.85;1.50;;;;;;;25.77;31.96;97636.34;5069279;28;20019;-33
2021/10/23 08:17:52;;;;;;;2.83;1.30;;;;;;;25.77;32.13;97644.22;5054421;28;20036;-34
2021/10/23 08:20:17;;;;;;;2.75;1.35;;;;;;;25.78;32.01;97640.69;5071740;28;20107;-31
2021/10/23 08:22:43;;;;;;;2.63;1.30;;;;;;;25.78;32.17;97629.34;5069428;28;20020;-33
2021/10/23 08:25:09;;;;;;;2.90;1.48;;;;;;;25.78;32.20;97635.44;5068054;28;20039;-28
2021/10/23 08:27:36;;;;;;;1.98;1.15;;;;;;;25.79;32.09;97634.53;5079025;28;20027;-30
2021/10/23 08:30:02;;;;;;;3.25;1.30;;;;;;;25.80;32.19;97633.63;5087370;28;20036;-34
2021/10/23 08:32:27;;;;;;;1.98;1.10;;;;;;;25.80;32.19;97635.38;5070374;28;20024;-34
2021/10/23 08:34:55;;;;;;;3.30;1.27;;;;;;;25.80;32.12;97638.88;5068660;28;20032;-28
2021/10/23 08:37:21;;;;;;;2.72;1.27;;;;;;;25.81;32.13;97645.81;5070951;28;20112;-30
2021/10/23 08:39:46;;;;;;;2.40;1.33;;;;;;;25.82;32.25;97638.81;5067927;28;20086;-30
2021/10/23 08:42:11;;;;;;;3.13;1.50;;;;;;;25.82;32.11;97637.00;5072261;28;20024;-32
2021/10/23 08:44:37;;;;;;;3.70;1.33;;;;;;;25.82;32.25;97637.00;5071821;28;20101;-33
2021/10/23 08:47:03;;;;;;;3.25;1.13;;;;;;;25.83;32.30;97630.00;5070370;28;20024;-30
2021/10/23 08:49:29;;;;;;;2.25;1.40;;;;;;;25.84;32.35;97623.84;5065932;28;20585;-31
2021/10/23 08:51:54;;;;;;;2.47;1.10;;;;;;;25.84;32.35;97623.84;5069673;28;20025;-29
2021/10/23 08:54:20;;;;;;;2.85;1.40;;;;;;;25.84;32.15;97621.22;5050647;28;20028;-32
2021/10/23 08:56:45;;;;;;;4.57;1.38;;;;;;;25.86;32.54;97631.66;5067957;28;20023;-30
2021/10/23 08:59:11;;;;;;;3.13;1.23;;;;;;;25.86;32.39;97642.16;5072017;28;20036;-33
2021/10/23 09:01:36;;;;;;;2.70;1.30;;;;;;;25.86;32.34;97636.91;5070545;28;20409;-32
2021/10/23 09:04:01;;;;;;;2.22;1.33;;;;;;;25.87;32.51;97638.59;5069810;28;20835;-30
2021/10/23 09:06:34;;;;;;;1.70;1.02;;;;;;;25.85;32.32;97640.44;5067654;28;20016;-29
2021/10/23 09:09:05;;;;;;;2.67;1.23;;;;;;;25.86;32.44;97645.66;5050189;28;21138;-29
2021/10/23 09:11:38;;;;;;;1.80;0.95;;;;;;;25.87;32.51;97649.09;5068715;28;20039;-28
2021/10/23 09:14:29;;;;;;;2.55;1.30;;;;;;;25.87;32.64;97646.47;5054291;28;20050;-33
2021/10/23 09:17:07;;;;;;;1.70;1.00;;;;;;;25.89;32.43;97652.53;5068217;28;20035;-29
2021/10/23 09:19:44;;;;;;;2.15;1.10;;;;;;;25.89;32.44;97652.53;5054054;28;20050;-31
2021/10/23 09:22:22;;;;;;;1.30;1.00;;;;;;;25.90;32.48;97646.38;5068174;28;20031;-32
2021/10/23 09:24:48;;;;;;;2.58;1.30;;;;;;;25.90;32.55;97649.84;5065685;28;20029;-31
2021/10/23 09:27:17;;;;;;;2.67;1.00;;;;;;;25.91;32.46;97645.44;5065952;28;20042;-30
2021/10/23 09:29:43;;;;;;;3.70;1.33;;;;;;;25.92;32.51;97641.91;5054788;28;20032;-29
2021/10/23 09:32:09;;;;;;;2.72;1.10;;;;;;;25.90;32.68;97649.84;5076450;28;20017;-32
2021/10/23 09:34:35;;;;;;;2.20;1.00;;;;;;;25.91;32.59;97646.31;5069263;28;20033;-34
2021/10/23 09:37:03;;;;;;;3.72;1.30;;;;;;;25.92;32.62;97647.16;5055087;28;20865;-32
2021/10/23 09:39:29;;;;;;;2.53;1.20;;;;;;;25.94;32.74;97647.97;5070814;28;20716;-30
2021/10/23 09:42:12;;;;;;;3.13;0.98;;;;;;;25.94;32.67;97645.34;5069141;28;20032;-35
2021/10/23 09:44:39;;;;;;;1.35;0.80;;;;;;;25.96;32.59;97638.22;5069628;28;20028;-30
2021/10/23 09:47:04;;;;;;;1.73;1.10;;;;;;;25.95;32.79;97637.41;5067995;28;20110;-29
2021/10/23 09:49:30;;;;;;;1.45;0.82;;;;;;;25.96;32.57;97644.34;5068884;28;20791;-29
2021/10/23 09:52:06;;;;;;;1.25;0.90;;;;;;;25.98;32.65;97649.53;5062776;28;20028;-31
2021/10/23 09:54:32;;;;;;;1.92;0.80;;;;;;;25.98;32.84;97652.19;5069008;28;20127;-34
2021/10/23 09:56:57;;;;;;;3.15;0.77;;;;;;;25.96;32.73;97648.75;5059812;28;20632;-31
2021/10/23 09:59:27;;;;;;;2.22;0.93;;;;;;;25.99;32.68;97659.13;5084222;28;20081;-32
2021/10/23 10:01:56;;;;;;;2.13;1.00;;;;;;;25.99;32.65;97659.13;5077992;28;20100;-33
2021/10/23 10:04:21;;;;;;;1.63;1.02;;;;;;;26.00;32.84;97657.38;5077313;28;20024;-32
2021/10/23 10:06:47;;;;;;;2.97;0.95;;;;;;;26.00;32.75;97655.56;5069222;28;20464;-32
2021/10/23 10:09:15;;;;;;;1.13;0.90;;;;;;;26.01;32.85;97665.16;5069922;28;20032;-31
2021/10/23 10:11:41;;;;;;;1.42;0.80;;;;;;;26.00;32.87;97660.84;5069049;28;20034;-30
2021/10/23 10:14:07;;;;;;;1.75;1.10;;;;;;;26.00;32.90;97666.09;5068183;28;20032;-30
2021/10/23 10:16:32;;;;;;;1.00;0.70;;;;;;;26.01;32.77;97672.19;5069387;28;20672;-29
2021/10/23 10:18:58;;;;;;;2.70;0.75;;;;;;;26.01;32.94;97662.53;5068200;28;20039;-33
2021/10/23 10:21:23;;;;;;;1.13;0.70;;;;;;;26.01;32.88;97667.78;5068926;28;20028;-34
2021/10/23 10:23:51;;;;;;;1.33;0.60;;;;;;;26.01;32.87;97665.16;5066891;28;20443;-32
2021/10/23 10:26:36;;;;;;;0.95;0.68;;;;;;;26.01;32.93;97670.41;5071400;28;20671;-32
2021/10/23 10:32:19;;;;;;;1.38;0.93;;;;;;;26.01;33.01;97667.78;5066963;28;20894;-34
2021/10/23 10:42:56;;;;;;;0.98;0.70;;;;;;;26.02;32.94;97653.75;5069692;28;20057;-32
2021/10/23 10:45:41;;;;;;;1.17;0.60;;;;;;;26.02;33.05;97659.00;5066978;28;20512;-31
2021/10/23 10:48:29;;;;;;;1.48;0.70;;;;;;;26.02;33.07;97653.75;5066592;28;20094;-31
2021/10/23 10:51:14;;;;;;;1.02;0.70;;;;;;;26.03;32.81;97660.72;5063904;28;20043;-29
2021/10/23 10:53:49;;;;;;;1.25;0.90;;;;;;;26.03;33.11;97665.97;5075851;28;20727;-29
2021/10/23 10:56:15;;;;;;;1.23;0.73;;;;;;;26.04;33.02;97659.78;5065704;28;20210;-30
2021/10/23 10:58:44;;;;;;;1.55;0.75;;;;;;;26.04;32.97;97659.78;5072570;28;20034;-31
2021/10/23 11:01:21;;;;;;;1.23;0.80;;;;;;;26.06;33.15;97647.47;5070685;28;20024;-34
2021/10/23 11:03:49;;;;;;;1.08;0.60;;;;;;;26.06;32.97;97654.47;5074642;28;20240;-32
2021/10/23 11:06:30;;;;;;;2.55;0.82;;;;;;;26.06;33.12;97643.97;5070448;28;20025;-32
2021/10/23 11:09:08;;;;;;;1.35;0.73;;;;;;;26.08;33.00;97653.50;5073087;28;20409;-30
2021/10/23 11:11:49;;;;;;;3.38;0.80;;;;;;;26.08;32.96;97647.38;5069515;28;20100;-33
2021/10/23 11:14:24;;;;;;;0.65;0.50;;;;;;;26.08;33.05;97647.38;5073006;28;20029;-34
2021/10/23 11:16:52;;;;;;;2.17;0.73;;;;;;;26.08;32.94;97643.00;5069263;28;20023;-31
2021/10/23 11:19:28;;;;;;;1.60;0.93;;;;;;;26.08;33.06;97640.38;5068717;28;20028;-34
2021/10/23 11:22:02;;;;;;;0.73;0.47;;;;;;;26.09;32.99;97647.31;5067847;28;20093;-34
2021/10/23 11:24:29;;;;;;;0.98;0.65;;;;;;;26.10;32.95;97646.41;5069911;28;20032;-28
2021/10/23 11:26:54;;;;;;;1.10;0.60;;;;;;;26.10;33.00;97645.56;5070384;28;20085;-32
2021/10/23 11:29:27;;;;;;;1.30;0.80;;;;;;;26.10;33.08;97648.19;5072665;28;20020;-30
2021/10/23 11:31:53;;;;;;;1.13;0.70;;;;;;;26.10;32.93;97651.66;5072525;28;20087;-33
2021/10/23 11:34:23;;;;;;;0.80;0.57;;;;;;;26.10;33.15;97643.78;5070921;28;20070;-30
2021/10/23 11:37:18;;;;;;;0.98;0.60;;;;;;;26.10;33.00;97646.41;5074666;28;20024;-30
2021/10/23 11:39:56;;;;;;;1.80;0.80;;;;;;;26.10;33.10;97646.41;5070349;28;20036;-29
2021/10/23 11:42:23;;;;;;;0.88;0.60;;;;;;;26.10;33.04;97640.31;5070830;28;20054;-28